Time;durP1;ratioP1;P1;durP2;ratioP2;P2;SDS_P1;SDS_P2;PMS_P1;PMS_P2;Temp;Humidity;BMP_temperature;BMP_pressure;BME280_temperature;BME280_humidity;BME280_pressure;Samples;Min_cycle;Max_cycle;Signal;HPM_P1;HPM_P2
2024/02/10 00:00:35;;;;;;;1.30;1.20;;;21.20;71.30;;;;;;4971236;28;20193;-68
2024/02/10 00:03:02;;;;;;;1.00;0.90;;;21.20;71.70;;;;;;4971103;28;20216;-67
2024/02/10 00:05:29;;;;;;;1.20;0.90;;;21.30;71.40;;;;;;4972320;28;20201;-65
2024/02/10 00:07:56;;;;;;;1.60;0.90;;;21.20;72.30;;;;;;4975667;28;20201;-66
2024/02/10 00:10:25;;;;;;;1.40;1.23;;;21.30;75.00;;;;;;4971352;28;20201;-67
2024/02/10 00:12:54;;;;;;;1.15;0.90;;;21.00;71.00;;;;;;4971085;28;20565;-67
2024/02/10 00:15:21;;;;;;;1.67;1.15;;;21.10;70.90;;;;;;4970454;28;20743;-65
2024/02/10 00:17:48;;;;;;;1.40;1.30;;;21.10;70.90;;;;;;4972307;28;20205;-66
2024/02/10 00:20:15;;;;;;;1.30;0.90;;;21.10;71.00;;;;;;4968969;28;20219;-65
2024/02/10 00:22:43;;;;;;;1.10;0.90;;;21.10;71.30;;;;;;4958579;28;20228;-66
2024/02/10 00:25:10;;;;;;;1.40;1.00;;;21.00;72.80;;;;;;4954821;28;20201;-66
2024/02/10 00:27:38;;;;;;;1.20;1.10;;;21.10;72.20;;;;;;4940764;28;20289;-68
2024/02/10 00:30:08;;;;;;;2.58;1.25;;;20.90;72.50;;;;;;4942093;28;20541;-67
2024/02/10 00:32:36;;;;;;;1.35;0.90;;;21.10;71.20;;;;;;4944559;28;20946;-66
2024/02/10 00:35:03;;;;;;;1.80;1.10;;;21.00;71.00;;;;;;4948108;28;20241;-66
2024/02/10 00:37:30;;;;;;;1.20;0.98;;;21.00;71.00;;;;;;4953374;28;20202;-65
2024/02/10 00:39:56;;;;;;;1.20;0.90;;;21.00;71.10;;;;;;4950066;28;20204;-66
2024/02/10 00:42:28;;;;;;;1.38;1.17;;;21.00;71.00;;;;;;4951708;28;20232;-66
2024/02/10 00:44:56;;;;;;;1.35;1.08;;;21.00;71.00;;;;;;4948351;28;20201;-69
2024/02/10 00:47:24;;;;;;;1.60;1.30;;;20.90;75.70;;;;;;4951967;28;20340;-68
2024/02/10 00:49:52;;;;;;;1.38;1.17;;;20.90;72.50;;;;;;4953635;28;20212;-69
2024/02/10 00:52:18;;;;;;;1.40;1.10;;;20.80;72.10;;;;;;4956200;28;20753;-69
2024/02/10 00:54:46;;;;;;;1.35;1.13;;;21.20;72.30;;;;;;4953281;28;21107;-69
2024/02/10 00:57:13;;;;;;;1.10;0.95;;;21.00;72.00;;;;;;4949233;28;20253;-70
2024/02/10 00:59:44;;;;;;;1.50;1.10;;;20.70;71.90;;;;;;4962092;28;20204;-69
2024/02/10 01:02:11;;;;;;;1.20;0.90;;;20.90;71.40;;;;;;4970450;28;20247;-67
2024/02/10 01:04:41;;;;;;;1.55;1.00;;;20.90;72.20;;;;;;4971986;28;20212;-67
2024/02/10 01:07:09;;;;;;;1.50;1.40;;;20.90;71.40;;;;;;4971823;28;20201;-67
2024/02/10 01:09:38;;;;;;;1.38;0.90;;;21.00;71.40;;;;;;4967913;28;20205;-68
2024/02/10 01:12:07;;;;;;;2.10;1.13;;;20.70;71.10;;;;;;4966105;28;20279;-66
2024/02/10 01:14:35;;;;;;;1.38;1.02;;;20.90;71.40;;;;;;4960504;28;20201;-68
2024/02/10 01:17:03;;;;;;;1.17;0.80;;;21.00;71.50;;;;;;4966258;28;20189;-68
2024/02/10 01:19:31;;;;;;;1.40;1.20;;;20.60;70.70;;;;;;4964278;28;20198;-70
2024/02/10 01:21:59;;;;;;;1.40;1.00;;;21.10;71.50;;;;;;4961272;28;20221;-67
2024/02/10 01:24:27;;;;;;;1.10;1.00;;;20.80;71.20;;;;;;4966302;28;20213;-70
2024/02/10 01:26:54;;;;;;;1.30;0.90;;;21.00;71.30;;;;;;4969131;28;20201;-68
2024/02/10 01:29:21;;;;;;;1.38;1.00;;;20.80;70.90;;;;;;4963774;28;20193;-67
2024/02/10 01:31:48;;;;;;;1.73;1.27;;;20.70;70.80;;;;;;4965500;28;20205;-67
2024/02/10 01:34:15;;;;;;;1.20;1.00;;;20.80;71.00;;;;;;4962149;28;20202;-69
2024/02/10 01:36:41;;;;;;;1.67;1.35;;;20.80;71.10;;;;;;4961736;28;20197;-68
2024/02/10 01:39:10;;;;;;;1.30;0.90;;;20.80;71.10;;;;;;4963664;28;21787;-69
2024/02/10 01:41:38;;;;;;;1.42;0.90;;;20.80;71.10;;;;;;4965066;28;20217;-66
2024/02/10 01:44:06;;;;;;;1.10;1.00;;;20.80;71.20;;;;;;4962634;28;20684;-68
2024/02/10 01:46:34;;;;;;;2.10;1.05;;;20.70;70.90;;;;;;4968980;28;20200;-68
2024/02/10 01:49:02;;;;;;;1.15;0.95;;;20.50;70.90;;;;;;4966265;28;20216;-67
2024/02/10 01:51:29;;;;;;;1.20;1.10;;;20.60;71.10;;;;;;4969932;28;20692;-67
2024/02/10 01:53:57;;;;;;;1.20;0.80;;;20.70;71.30;;;;;;4966072;28;20684;-69
2024/02/10 01:56:30;;;;;;;1.55;1.10;;;20.70;71.20;;;;;;4970602;28;20263;-69
2024/02/10 01:58:57;;;;;;;1.98;1.00;;;20.60;71.20;;;;;;4965745;28;20235;-70
2024/02/10 02:01:30;;;;;;;1.65;1.05;;;20.30;70.80;;;;;;4958926;28;21185;-69
2024/02/10 02:03:57;;;;;;;1.85;1.10;;;21.00;71.70;;;;;;4964627;28;20201;-68
2024/02/10 02:06:31;;;;;;;1.20;1.00;;;20.70;71.20;;;;;;4968248;28;20202;-69
2024/02/10 02:09:00;;;;;;;1.10;0.95;;;20.60;71.20;;;;;;4968640;28;20192;-68
2024/02/10 02:11:29;;;;;;;1.85;1.13;;;20.60;71.20;;;;;;4966598;28;20304;-69
2024/02/10 02:13:58;;;;;;;1.50;1.30;;;20.80;71.50;;;;;;4970816;28;20879;-67
2024/02/10 02:16:29;;;;;;;1.17;0.90;;;20.40;70.80;;;;;;4959515;28;20217;-69
2024/02/10 02:18:57;;;;;;;1.70;1.00;;;20.60;71.30;;;;;;4959849;28;20191;-68
2024/02/10 02:21:27;;;;;;;1.40;1.00;;;20.70;71.40;;;;;;4969441;28;20284;-67
2024/02/10 02:23:55;;;;;;;1.00;0.80;;;20.70;71.30;;;;;;4965369;28;20217;-67
2024/02/10 02:26:22;;;;;;;1.17;1.05;;;20.60;71.20;;;;;;4968476;28;20224;-67
2024/02/10 02:28:49;;;;;;;1.35;1.20;;;20.60;73.70;;;;;;4965540;28;20202;-70
2024/02/10 02:31:17;;;;;;;1.50;1.13;;;20.50;71.90;;;;;;4966062;28;20200;-66
2024/02/10 02:33:43;;;;;;;1.60;0.88;;;20.60;71.40;;;;;;4962131;28;20201;-67
2024/02/10 02:36:10;;;;;;;1.30;1.00;;;20.50;71.40;;;;;;4964721;28;20205;-68
2024/02/10 02:38:38;;;;;;;1.50;0.90;;;20.60;71.30;;;;;;4968614;28;20201;-69
2024/02/10 02:41:06;;;;;;;1.10;1.00;;;20.60;71.20;;;;;;4968550;28;20767;-68
2024/02/10 02:43:36;;;;;;;2.40;1.35;;;20.60;71.90;;;;;;4969053;28;20220;-69
2024/02/10 02:46:06;;;;;;;1.48;1.00;;;20.50;72.10;;;;;;4966591;28;20209;-69
2024/02/10 02:48:35;;;;;;;1.10;0.90;;;20.50;71.30;;;;;;4962505;28;20284;-70
2024/02/10 02:51:02;;;;;;;1.83;1.15;;;20.50;71.20;;;;;;4969651;28;20299;-69
2024/02/10 02:53:33;;;;;;;1.40;1.08;;;20.50;71.40;;;;;;4969947;28;20220;-69
2024/02/10 02:55:59;;;;;;;1.20;0.90;;;20.60;71.50;;;;;;4971633;28;20920;-67
2024/02/10 02:58:28;;;;;;;1.10;0.90;;;20.60;71.40;;;;;;4970569;28;20216;-67
2024/02/10 03:00:55;;;;;;;1.10;0.93;;;20.50;71.20;;;;;;4964325;28;20560;-69
2024/02/10 03:03:26;;;;;;;1.65;1.45;;;20.50;71.30;;;;;;4966391;28;20221;-68
2024/02/10 03:05:57;;;;;;;1.10;0.90;;;20.50;71.30;;;;;;4961637;28;20205;-68
2024/02/10 03:08:27;;;;;;;1.13;0.98;;;20.50;71.30;;;;;;4965751;28;20893;-67
2024/02/10 03:11:17;;;;;;;1.70;1.10;;;20.80;71.70;;;;;;4962096;28;20197;-69
2024/02/10 03:13:46;;;;;;;1.38;1.02;;;20.50;71.70;;;;;;4968352;28;20201;-68
2024/02/10 03:16:13;;;;;;;1.13;1.00;;;20.50;72.80;;;;;;4961981;28;20890;-68
2024/02/10 03:18:45;;;;;;;1.92;1.17;;;20.50;71.40;;;;;;4964489;28;20208;-67
2024/02/10 03:21:12;;;;;;;1.65;1.13;;;20.50;71.10;;;;;;4967896;28;20653;-67
2024/02/10 03:23:38;;;;;;;1.27;1.02;;;20.40;71.00;;;;;;4968469;28;20236;-69
2024/02/10 03:26:05;;;;;;;1.10;1.00;;;20.40;71.30;;;;;;4971302;28;20208;-68
2024/02/10 03:28:34;;;;;;;1.20;1.00;;;20.30;71.00;;;;;;4969461;28;20232;-68
2024/02/10 03:31:02;;;;;;;1.23;0.90;;;20.60;72.10;;;;;;4969970;28;20985;-67
2024/02/10 03:33:30;;;;;;;1.20;0.88;;;20.40;71.30;;;;;;4966700;28;20869;-70
2024/02/10 03:35:57;;;;;;;1.70;1.17;;;20.30;72.10;;;;;;4965011;28;20207;-69
2024/02/10 03:38:24;;;;;;;1.20;1.00;;;20.40;72.30;;;;;;4964375;28;20283;-69
2024/02/10 03:40:51;;;;;;;1.38;0.90;;;20.80;72.30;;;;;;4966030;28;20205;-70
2024/02/10 03:43:22;;;;;;;1.48;1.05;;;20.30;71.20;;;;;;4965162;28;20225;-69
2024/02/10 03:45:49;;;;;;;1.42;0.98;;;20.40;71.10;;;;;;4967326;28;20291;-67
2024/02/10 03:48:17;;;;;;;1.60;1.05;;;20.40;71.30;;;;;;4968485;28;20214;-68
2024/02/10 03:50:43;;;;;;;1.30;0.85;;;20.40;71.40;;;;;;4969773;28;20201;-67
2024/02/10 03:53:10;;;;;;;1.20;0.90;;;20.40;71.30;;;;;;4969043;28;20649;-66
2024/02/10 03:55:38;;;;;;;1.00;0.80;;;20.30;71.40;;;;;;4966644;28;20196;-69
2024/02/10 03:58:05;;;;;;;2.17;1.40;;;20.40;71.50;;;;;;4963789;28;20711;-67
2024/02/10 04:00:36;;;;;;;1.02;0.93;;;20.10;71.10;;;;;;4968442;28;20189;-67
2024/02/10 04:03:03;;;;;;;1.00;0.80;;;20.40;71.30;;;;;;4968175;28;22034;-68
2024/02/10 04:05:34;;;;;;;1.00;0.80;;;20.40;71.40;;;;;;4969057;28;20259;-69
2024/02/10 04:08:01;;;;;;;1.42;1.00;;;20.30;71.20;;;;;;4967542;28;20231;-69
2024/02/10 04:10:28;;;;;;;1.20;0.90;;;20.40;71.30;;;;;;4965390;28;20205;-69
2024/02/10 04:12:55;;;;;;;1.10;0.90;;;20.40;71.20;;;;;;4967367;28;20584;-69
2024/02/10 04:15:22;;;;;;;1.00;0.80;;;20.40;71.30;;;;;;4965608;28;20905;-69
2024/02/10 04:17:53;;;;;;;1.10;1.00;;;20.40;72.80;;;;;;4970393;28;20321;-69
2024/02/10 04:20:22;;;;;;;1.40;0.90;;;20.30;72.30;;;;;;4967925;28;20208;-69
2024/02/10 04:22:51;;;;;;;1.52;1.05;;;20.40;71.90;;;;;;4970208;28;20216;-68
2024/02/10 04:25:17;;;;;;;1.23;0.90;;;20.30;71.40;;;;;;4969987;28;20230;-69
2024/02/10 04:27:44;;;;;;;1.13;1.00;;;20.20;71.10;;;;;;4962315;28;20201;-69
2024/02/10 04:30:14;;;;;;;1.20;1.00;;;20.30;71.20;;;;;;4963587;28;20208;-69
2024/02/10 04:32:46;;;;;;;1.25;0.95;;;20.30;71.20;;;;;;4971449;28;20201;-68
2024/02/10 04:35:13;;;;;;;1.00;0.80;;;20.40;71.10;;;;;;4967162;28;20209;-68
2024/02/10 04:37:51;;;;;;;1.50;0.98;;;20.30;71.10;;;;;;4968091;28;20964;-67
2024/02/10 04:40:21;;;;;;;1.42;1.05;;;20.70;71.70;;;;;;4972100;28;20204;-69
2024/02/10 04:42:47;;;;;;;1.10;0.90;;;20.30;71.30;;;;;;4966520;28;20220;-67
2024/02/10 04:45:23;;;;;;;1.35;1.17;;;20.10;71.10;;;;;;4966427;28;20193;-67
2024/02/10 04:47:51;;;;;;;1.85;1.02;;;20.30;71.20;;;;;;4967253;28;20766;-67
2024/02/10 04:50:18;;;;;;;1.50;1.20;;;20.20;71.50;;;;;;4965094;28;20778;-69
2024/02/10 04:52:45;;;;;;;1.70;1.60;;;20.30;72.60;;;;;;4968539;28;20237;-67
2024/02/10 04:55:13;;;;;;;1.30;1.00;;;20.30;72.40;;;;;;4967010;28;20208;-68
2024/02/10 04:57:41;;;;;;;1.00;0.80;;;20.20;72.90;;;;;;4962006;28;20200;-68
2024/02/10 05:00:12;;;;;;;1.13;0.90;;;20.60;72.60;;;;;;4965222;28;20193;-68
2024/02/10 05:02:43;;;;;;;1.30;1.20;;;20.20;71.40;;;;;;4970698;28;20684;-67
2024/02/10 05:05:11;;;;;;;1.45;1.35;;;20.20;71.50;;;;;;4968071;28;20299;-68
2024/02/10 05:07:41;;;;;;;1.20;0.90;;;20.20;71.60;;;;;;4964753;28;20206;-68
2024/02/10 05:10:10;;;;;;;1.38;1.13;;;20.00;71.10;;;;;;4965398;28;20259;-67
2024/02/10 05:12:38;;;;;;;1.13;0.90;;;20.20;71.20;;;;;;4969820;28;20200;-68
2024/02/10 05:15:09;;;;;;;1.23;0.80;;;20.20;71.10;;;;;;4969318;28;20876;-68
2024/02/10 05:17:39;;;;;;;1.17;1.00;;;20.20;71.20;;;;;;4971532;28;20656;-68
2024/02/10 05:20:17;;;;;;;1.52;0.90;;;20.20;71.00;;;;;;4969103;28;20209;-67
2024/02/10 05:22:44;;;;;;;0.90;0.70;;;20.20;71.00;;;;;;4965640;28;20485;-69
2024/02/10 05:25:14;;;;;;;1.08;0.85;;;20.30;71.10;;;;;;4969057;28;20201;-68
2024/02/10 05:27:45;;;;;;;1.20;0.90;;;20.20;71.30;;;;;;4966577;28;20207;-67
2024/02/10 05:30:20;;;;;;;1.42;1.33;;;20.20;71.30;;;;;;4968759;28;20208;-69
2024/02/10 05:32:49;;;;;;;1.23;0.90;;;20.20;71.00;;;;;;4962768;28;20755;-67
2024/02/10 05:35:18;;;;;;;1.10;1.00;;;20.10;71.00;;;;;;4971465;28;20866;-67
2024/02/10 05:37:49;;;;;;;1.30;0.82;;;20.20;71.00;;;;;;4966325;28;20680;-67
2024/02/10 05:40:17;;;;;;;1.25;1.10;;;20.10;71.10;;;;;;4964303;28;20205;-69
2024/02/10 05:42:46;;;;;;;1.00;0.90;;;20.20;71.00;;;;;;4966308;28;20223;-66
2024/02/10 05:45:16;;;;;;;1.00;0.80;;;20.10;71.00;;;;;;4967769;28;20204;-68
2024/02/10 05:47:44;;;;;;;1.02;0.70;;;20.10;71.00;;;;;;4969190;28;20775;-67
2024/02/10 05:50:15;;;;;;;1.17;0.90;;;20.20;71.00;;;;;;4969337;28;20291;-67
2024/02/10 05:52:44;;;;;;;1.10;0.93;;;20.10;71.30;;;;;;4960909;28;20237;-69
2024/02/10 05:55:21;;;;;;;1.20;0.90;;;20.50;71.90;;;;;;4965068;28;20252;-68
2024/02/10 05:57:47;;;;;;;1.00;0.90;;;20.20;71.40;;;;;;4957622;28;20275;-69
2024/02/10 06:00:20;;;;;;;1.38;1.05;;;20.10;71.40;;;;;;4956126;28;20564;-67
2024/02/10 06:02:47;;;;;;;1.52;0.98;;;20.10;71.70;;;;;;4957094;28;20231;-69
2024/02/10 06:05:15;;;;;;;1.20;0.93;;;20.40;72.00;;;;;;4965727;28;20200;-68
2024/02/10 06:07:43;;;;;;;1.10;0.80;;;20.10;71.50;;;;;;4953061;28;20228;-67
2024/02/10 06:10:12;;;;;;;1.10;0.85;;;20.20;71.80;;;;;;4965915;28;20208;-68
2024/02/10 06:12:39;;;;;;;1.40;1.10;;;20.10;72.20;;;;;;4968298;28;21310;-67
2024/02/10 06:15:10;;;;;;;1.00;0.75;;;20.10;71.00;;;;;;4970694;28;20212;-67
2024/02/10 06:17:43;;;;;;;1.38;0.80;;;20.10;71.10;;;;;;4966448;28;20236;-67
2024/02/10 06:20:14;;;;;;;1.00;0.90;;;20.10;71.20;;;;;;4965142;28;20779;-68
2024/02/10 06:22:42;;;;;;;0.90;0.70;;;20.10;71.10;;;;;;4969090;28;20280;-69
2024/02/10 06:25:11;;;;;;;1.10;0.80;;;20.10;71.20;;;;;;4969061;28;22184;-67
2024/02/10 06:27:41;;;;;;;1.38;1.27;;;20.10;71.50;;;;;;4956704;28;20202;-70
2024/02/10 06:30:11;;;;;;;1.25;0.95;;;19.90;71.40;;;;;;4965466;28;20224;-68
2024/02/10 06:32:39;;;;;;;1.23;1.08;;;20.10;71.40;;;;;;4967168;28;20707;-70
2024/02/10 06:35:09;;;;;;;1.13;0.80;;;20.10;71.40;;;;;;4965521;28;20197;-67
2024/02/10 06:37:37;;;;;;;1.00;0.82;;;20.10;73.70;;;;;;4968176;28;20196;-67
2024/02/10 06:40:05;;;;;;;1.02;0.85;;;20.10;73.10;;;;;;4965077;28;20205;-67
2024/02/10 06:42:35;;;;;;;1.10;0.90;;;20.10;71.60;;;;;;4966896;28;20339;-67
2024/02/10 06:45:07;;;;;;;1.00;0.90;;;20.40;72.00;;;;;;4969255;28;21104;-69
2024/02/10 06:47:36;;;;;;;1.20;1.00;;;20.10;71.60;;;;;;4965742;28;20483;-67
2024/02/10 06:50:03;;;;;;;1.20;0.95;;;20.10;71.30;;;;;;4968184;28;20300;-69
2024/02/10 06:52:34;;;;;;;1.10;0.90;;;20.10;71.60;;;;;;4963982;28;20200;-68
2024/02/10 06:55:00;;;;;;;1.30;0.88;;;20.10;71.30;;;;;;4968800;28;20212;-68
2024/02/10 06:57:27;;;;;;;1.10;1.00;;;20.10;71.80;;;;;;4967512;28;20201;-67
2024/02/10 06:59:54;;;;;;;1.00;0.80;;;20.00;73.40;;;;;;4973411;28;20262;-67
2024/02/10 07:02:21;;;;;;;1.10;0.90;;;20.10;71.40;;;;;;4976603;28;20335;-69
2024/02/10 07:04:52;;;;;;;1.00;0.73;;;20.00;71.00;;;;;;4974812;28;20226;-66
2024/02/10 07:07:19;;;;;;;1.10;0.77;;;20.10;71.20;;;;;;4973462;28;20208;-68
2024/02/10 07:09:47;;;;;;;1.10;0.88;;;20.10;71.20;;;;;;4975331;28;20201;-67
2024/02/10 07:12:14;;;;;;;1.13;0.88;;;19.80;71.00;;;;;;4961909;28;20211;-67
2024/02/10 07:14:45;;;;;;;1.77;1.67;;;19.90;70.90;;;;;;4971152;28;20206;-68
2024/02/10 07:17:12;;;;;;;1.15;0.95;;;20.00;71.10;;;;;;4965239;28;21315;-66
2024/02/10 07:19:42;;;;;;;1.20;0.90;;;20.00;71.00;;;;;;4967861;28;20201;-68
2024/02/10 07:22:10;;;;;;;1.02;0.80;;;19.90;71.00;;;;;;4961506;28;20201;-66
2024/02/10 07:24:47;;;;;;;1.10;0.80;;;20.00;71.10;;;;;;4972358;28;20376;-68
2024/02/10 07:27:17;;;;;;;1.20;0.98;;;20.00;71.10;;;;;;4970958;28;20542;-68
2024/02/10 07:29:48;;;;;;;0.90;0.70;;;20.00;71.10;;;;;;4968171;28;20201;-68
2024/02/10 07:32:15;;;;;;;1.20;0.98;;;20.00;71.10;;;;;;4970524;28;20193;-67
2024/02/10 07:34:42;;;;;;;1.23;1.00;;;20.00;71.00;;;;;;4970274;28;20200;-68
2024/02/10 07:37:10;;;;;;;1.42;1.27;;;19.90;71.20;;;;;;4968922;28;20197;-68
2024/02/10 07:39:41;;;;;;;1.02;0.80;;;20.00;71.20;;;;;;4977045;28;20212;-67
2024/02/10 07:42:13;;;;;;;1.00;0.80;;;20.30;71.80;;;;;;4969470;28;21135;-67
2024/02/10 07:44:40;;;;;;;1.35;0.98;;;20.00;71.60;;;;;;4971368;28;20225;-68
2024/02/10 07:47:10;;;;;;;0.95;0.82;;;20.00;71.70;;;;;;4965998;28;20204;-67
2024/02/10 07:49:37;;;;;;;1.20;1.02;;;20.10;71.70;;;;;;4968444;28;23401;-68
2024/02/10 07:52:04;;;;;;;1.10;0.88;;;20.10;71.80;;;;;;4972864;28;20228;-69
2024/02/10 07:54:33;;;;;;;1.05;0.80;;;20.10;71.80;;;;;;4976066;28;20201;-69
2024/02/10 07:57:02;;;;;;;1.45;1.20;;;20.10;72.70;;;;;;4969294;28;20683;-68
2024/02/10 07:59:33;;;;;;;1.30;0.90;;;20.10;71.80;;;;;;4970490;28;20198;-68
2024/02/10 08:02:00;;;;;;;1.02;0.90;;;20.00;71.80;;;;;;4958524;28;20204;-69
2024/02/10 08:04:27;;;;;;;1.05;0.82;;;20.20;72.00;;;;;;4962647;28;20701;-66
2024/02/10 08:06:56;;;;;;;1.10;0.80;;;20.20;72.00;;;;;;4971655;28;20486;-68
2024/02/10 08:09:23;;;;;;;1.08;0.85;;;20.40;72.20;;;;;;4971989;28;20193;-68
2024/02/10 08:11:52;;;;;;;1.25;1.00;;;20.10;72.10;;;;;;4970568;28;20201;-68
2024/02/10 08:14:20;;;;;;;1.00;0.75;;;20.30;73.60;;;;;;4964472;28;20201;-70
2024/02/10 08:16:51;;;;;;;1.30;1.10;;;20.00;72.10;;;;;;4967851;28;20260;-71
2024/02/10 08:19:20;;;;;;;1.05;0.80;;;20.40;72.40;;;;;;4967442;28;20193;-71
2024/02/10 08:21:46;;;;;;;1.10;0.90;;;20.30;74.20;;;;;;4972269;28;20236;-70
2024/02/10 08:24:16;;;;;;;1.10;0.90;;;20.50;72.60;;;;;;4969484;28;20572;-70
2024/02/10 08:26:44;;;;;;;1.00;0.70;;;20.30;72.20;;;;;;4967578;28;20211;-70
2024/02/10 08:29:13;;;;;;;1.00;0.80;;;20.60;72.30;;;;;;4959763;28;20288;-71
2024/02/10 08:31:39;;;;;;;1.10;0.73;;;20.40;72.40;;;;;;4967525;28;20190;-68
2024/02/10 08:34:11;;;;;;;3.28;1.10;;;20.40;72.10;;;;;;4961857;28;20212;-67
2024/02/10 08:36:37;;;;;;;1.00;0.80;;;20.80;73.10;;;;;;4952047;28;20197;-67
2024/02/10 08:39:06;;;;;;;0.90;0.70;;;20.40;72.60;;;;;;4957221;28;20208;-67
2024/02/10 08:41:35;;;;;;;1.00;0.80;;;20.50;73.00;;;;;;4966549;28;20205;-66
2024/02/10 08:44:02;;;;;;;3.42;0.88;;;20.50;73.10;;;;;;4961164;28;20974;-67
2024/02/10 08:46:32;;;;;;;1.20;0.80;;;20.50;73.40;;;;;;4954228;28;20291;-67
2024/02/10 08:49:01;;;;;;;1.00;0.85;;;20.30;72.50;;;;;;4968181;28;20217;-67
2024/02/10 08:51:32;;;;;;;1.10;0.80;;;20.50;74.80;;;;;;4968728;28;20201;-67
2024/02/10 08:54:03;;;;;;;1.23;0.85;;;20.60;72.80;;;;;;4970872;28;20656;-67
2024/02/10 08:56:40;;;;;;;1.00;0.70;;;20.70;72.50;;;;;;4970702;28;20206;-67
2024/02/10 08:59:09;;;;;;;1.00;0.80;;;20.60;72.60;;;;;;4963363;28;20200;-67
2024/02/10 09:01:41;;;;;;;1.38;0.95;;;20.60;72.40;;;;;;4963812;28;20223;-67
2024/02/10 09:04:08;;;;;;;1.30;0.80;;;20.60;72.40;;;;;;4969173;28;20225;-67
2024/02/10 09:06:37;;;;;;;1.00;0.70;;;20.60;72.40;;;;;;4972753;28;20891;-67
2024/02/10 09:09:04;;;;;;;1.23;0.80;;;20.60;72.40;;;;;;4970967;28;20197;-66
2024/02/10 09:11:39;;;;;;;1.05;0.80;;;20.50;72.50;;;;;;4966774;28;20201;-68
2024/02/10 09:14:11;;;;;;;1.02;0.85;;;20.80;72.60;;;;;;4967929;28;20581;-66
2024/02/10 09:16:40;;;;;;;1.00;0.70;;;20.40;72.00;;;;;;4964267;28;20672;-67
2024/02/10 09:19:07;;;;;;;1.20;0.90;;;20.60;72.30;;;;;;4967341;28;20208;-67
2024/02/10 09:21:33;;;;;;;1.00;0.80;;;20.70;72.30;;;;;;4967303;28;20201;-66
2024/02/10 09:24:03;;;;;;;1.05;0.70;;;20.90;72.60;;;;;;4965250;28;20228;-66
2024/02/10 09:26:29;;;;;;;1.48;0.88;;;20.70;72.30;;;;;;4967160;28;20209;-66
2024/02/10 09:28:56;;;;;;;1.70;0.90;;;20.70;72.40;;;;;;4961824;28;20657;-66
2024/02/10 09:31:27;;;;;;;1.10;0.90;;;20.70;72.20;;;;;;4965317;28;20824;-67
2024/02/10 09:33:53;;;;;;;1.00;0.80;;;20.70;72.30;;;;;;4967543;28;20205;-67
2024/02/10 09:36:20;;;;;;;1.10;0.90;;;20.80;72.20;;;;;;4970586;28;20467;-67
2024/02/10 09:38:47;;;;;;;1.38;0.82;;;21.10;72.70;;;;;;4969417;28;20205;-67
2024/02/10 09:41:15;;;;;;;1.70;1.00;;;20.80;72.30;;;;;;4966657;28;20208;-66
2024/02/10 09:43:44;;;;;;;0.90;0.70;;;20.80;72.30;;;;;;4970613;28;20464;-66
2024/02/10 09:46:11;;;;;;;1.10;0.80;;;20.80;72.30;;;;;;4968397;28;20205;-67
2024/02/10 09:48:41;;;;;;;1.10;0.90;;;20.70;72.20;;;;;;4957172;28;20517;-67
2024/02/10 09:51:08;;;;;;;1.10;0.90;;;20.80;72.20;;;;;;4970358;28;20189;-67
2024/02/10 09:53:40;;;;;;;1.67;0.90;;;20.80;72.10;;;;;;4967416;28;20198;-66
2024/02/10 09:56:10;;;;;;;0.90;0.80;;;20.80;72.10;;;;;;4963233;28;20235;-67
2024/02/10 09:58:40;;;;;;;1.20;1.02;;;20.70;72.00;;;;;;4963384;28;20205;-66
2024/02/10 10:01:09;;;;;;;1.20;0.80;;;20.80;72.10;;;;;;4953383;28;20288;-67
2024/02/10 10:03:37;;;;;;;1.20;0.90;;;20.80;72.10;;;;;;4964288;28;20212;-67
2024/02/10 10:06:05;;;;;;;2.88;0.90;;;20.80;72.60;;;;;;4959170;28;20701;-67
2024/02/10 10:08:38;;;;;;;1.10;0.90;;;20.80;72.50;;;;;;4960854;28;20228;-67
2024/02/10 10:11:05;;;;;;;2.10;0.88;;;20.80;72.40;;;;;;4962220;28;20224;-66
2024/02/10 10:13:33;;;;;;;0.90;0.75;;;20.70;72.30;;;;;;4964313;28;20199;-66
2024/02/10 10:16:05;;;;;;;1.25;0.80;;;20.80;72.30;;;;;;4962831;28;21002;-67
2024/02/10 10:18:33;;;;;;;1.83;0.80;;;20.80;72.50;;;;;;4961066;28;20220;-67
2024/02/10 10:21:00;;;;;;;1.30;1.00;;;21.10;72.90;;;;;;4961503;28;20206;-66
2024/02/10 10:23:29;;;;;;;1.10;0.80;;;20.90;74.50;;;;;;4959658;28;20324;-66
2024/02/10 10:25:56;;;;;;;1.00;0.80;;;20.70;75.60;;;;;;4960685;28;20355;-67
2024/02/10 10:28:25;;;;;;;1.23;0.70;;;20.90;72.50;;;;;;4944982;28;20530;-66
2024/02/10 10:31:01;;;;;;;1.30;0.80;;;20.90;72.50;;;;;;4958163;28;20201;-67
2024/02/10 10:33:33;;;;;;;1.30;0.80;;;20.60;72.20;;;;;;4959589;28;20223;-67
2024/02/10 10:36:02;;;;;;;1.00;0.90;;;20.90;72.60;;;;;;4961952;28;20208;-67
2024/02/10 10:38:30;;;;;;;1.30;0.90;;;21.10;72.90;;;;;;4960630;28;20197;-66
2024/02/10 10:40:59;;;;;;;1.20;0.90;;;20.90;72.70;;;;;;4959604;28;20228;-67
2024/02/10 10:43:27;;;;;;;1.17;0.90;;;20.60;72.30;;;;;;4963808;28;20214;-66
2024/02/10 10:45:55;;;;;;;1.20;1.10;;;20.70;72.60;;;;;;4954851;28;20232;-66
2024/02/10 10:48:22;;;;;;;2.70;1.27;;;20.90;73.20;;;;;;4959463;28;20210;-67
2024/02/10 10:50:55;;;;;;;0.90;0.73;;;20.90;74.70;;;;;;4959371;28;20560;-67
2024/02/10 10:53:27;;;;;;;1.20;1.00;;;20.90;73.30;;;;;;4956874;28;20244;-67
2024/02/10 10:55:58;;;;;;;1.50;0.80;;;20.60;72.50;;;;;;4962458;28;20774;-67
2024/02/10 10:58:35;;;;;;;3.70;0.90;;;20.90;72.80;;;;;;4960130;28;20811;-68
2024/02/10 11:01:15;;;;;;;1.50;1.10;;;20.90;73.10;;;;;;4961763;28;20673;-68
2024/02/10 11:03:42;;;;;;;1.00;0.70;;;20.90;73.10;;;;;;4961488;28;20202;-66
2024/02/10 11:06:12;;;;;;;1.38;0.98;;;21.00;73.50;;;;;;4956547;28;20701;-64
2024/02/10 11:08:41;;;;;;;0.90;0.70;;;21.10;74.70;;;;;;4955004;28;20593;-66
2024/02/10 11:11:10;;;;;;;1.20;0.80;;;20.90;76.00;;;;;;4955622;28;20736;-64
2024/02/10 11:13:39;;;;;;;1.08;0.80;;;20.90;73.50;;;;;;4961759;28;20918;-67
2024/02/10 11:16:12;;;;;;;1.00;0.73;;;21.60;74.60;;;;;;4964589;28;20204;-65
2024/02/10 11:18:39;;;;;;;1.02;0.82;;;21.10;73.90;;;;;;4954810;28;20214;-65
2024/02/10 11:21:19;;;;;;;0.90;0.60;;;21.20;74.10;;;;;;4961188;28;20302;-64
2024/02/10 11:24:08;;;;;;;0.87;0.67;;;21.20;75.30;;;;;;4961515;28;20479;-65
2024/02/10 11:26:39;;;;;;;1.10;0.80;;;21.30;74.70;;;;;;4967471;28;20668;-64
2024/02/10 11:29:08;;;;;;;1.00;0.70;;;21.30;73.90;;;;;;4960035;28;20463;-66
2024/02/10 11:31:39;;;;;;;1.02;0.80;;;21.30;73.90;;;;;;4965297;28;20456;-66
2024/02/10 11:34:11;;;;;;;1.23;0.80;;;21.20;73.80;;;;;;4954400;28;20790;-64
2024/02/10 11:36:48;;;;;;;0.90;0.70;;;21.30;73.90;;;;;;4963190;28;20452;-63
2024/02/10 11:39:19;;;;;;;0.90;0.70;;;21.70;74.30;;;;;;4963999;28;20460;-63
2024/02/10 11:41:47;;;;;;;0.90;0.80;;;21.80;74.30;;;;;;4960628;28;20500;-62
2024/02/10 11:44:28;;;;;;;1.10;0.63;;;21.40;73.90;;;;;;4964370;28;20495;-64
2024/02/10 11:46:56;;;;;;;1.00;0.77;;;21.40;73.70;;;;;;4964134;28;20839;-67
2024/02/10 11:49:23;;;;;;;1.13;0.90;;;21.30;73.90;;;;;;4963573;28;20557;-66
2024/02/10 11:51:56;;;;;;;0.90;0.80;;;21.70;74.50;;;;;;4962401;28;20475;-66
2024/02/10 11:54:27;;;;;;;0.90;0.67;;;21.90;75.60;;;;;;4967260;28;21245;-67
2024/02/10 11:56:57;;;;;;;1.37;0.90;;;21.60;73.80;;;;;;4965387;28;20475;-68
2024/02/10 11:59:25;;;;;;;1.00;0.70;;;21.60;73.80;;;;;;4964422;28;20476;-67
2024/02/10 12:01:53;;;;;;;1.60;0.87;;;21.40;73.40;;;;;;4965852;28;20547;-67
2024/02/10 12:04:20;;;;;;;0.90;0.70;;;21.70;73.70;;;;;;4966957;28;20752;-66
2024/02/10 12:06:48;;;;;;;1.20;0.70;;;21.70;73.70;;;;;;4967681;28;20933;-65
2024/02/10 12:09:18;;;;;;;1.27;0.83;;;21.70;73.60;;;;;;4963962;28;20459;-67
2024/02/10 12:11:47;;;;;;;0.90;0.70;;;21.70;73.50;;;;;;4966051;28;20471;-66
2024/02/10 12:14:13;;;;;;;1.30;0.90;;;21.70;73.50;;;;;;4961671;28;20476;-66
2024/02/10 12:16:43;;;;;;;0.90;0.70;;;21.70;73.50;;;;;;4964164;28;20471;-66
2024/02/10 12:19:09;;;;;;;1.10;0.70;;;22.10;73.90;;;;;;4954720;28;20511;-68
2024/02/10 12:21:40;;;;;;;1.10;0.70;;;21.80;73.50;;;;;;4963602;28;20913;-69
2024/02/10 12:24:09;;;;;;;1.00;0.77;;;21.80;73.40;;;;;;4972741;28;20464;-66
2024/02/10 12:26:38;;;;;;;1.27;0.70;;;21.80;73.30;;;;;;4963231;28;21030;-66
2024/02/10 12:29:09;;;;;;;1.00;0.80;;;21.60;73.30;;;;;;4969416;28;20955;-64
2024/02/10 12:31:38;;;;;;;1.00;0.70;;;21.70;73.20;;;;;;4970043;28;20465;-65
2024/02/10 12:34:05;;;;;;;1.00;0.80;;;22.20;74.20;;;;;;4968459;28;20468;-67
2024/02/10 12:36:34;;;;;;;1.00;0.70;;;21.90;74.10;;;;;;4971779;28;20871;-66
2024/02/10 12:39:03;;;;;;;0.90;0.70;;;21.90;76.80;;;;;;4967778;28;20968;-66
2024/02/10 12:41:30;;;;;;;1.00;0.80;;;21.80;73.80;;;;;;4971957;28;20464;-66
2024/02/10 12:43:59;;;;;;;1.23;0.90;;;21.70;73.70;;;;;;4963923;28;20471;-66
2024/02/10 12:46:28;;;;;;;0.97;0.67;;;21.80;73.80;;;;;;4971160;28;20484;-66
2024/02/10 12:48:55;;;;;;;0.90;0.70;;;22.10;73.50;;;;;;4965572;28;20865;-65
2024/02/10 12:51:24;;;;;;;0.90;0.70;;;22.00;73.20;;;;;;4965804;28;20457;-66
2024/02/10 12:53:54;;;;;;;1.53;0.70;;;22.00;73.40;;;;;;4963561;28;20939;-65
2024/02/10 12:56:21;;;;;;;1.00;0.73;;;21.80;72.90;;;;;;4964043;28;20476;-67